PWSweather.com
Personal Weather Stations
Station Observations
ERMELO
Centre, ErmeloNL

CentreErmeloNL

Lat: 52.2986655, Lon: 5.6296194

Elevation: 41

Station Type: Oregon WMR200

www.meteoermelo.nl

High Low Average
Temperature 39.7°F4.3°C 24.8°F-4.0°C 31.1°F-0.5°C
Dew Point 32.9°F0.5°C 17.6°F-8.0°C 23.9°F-4.5°C
Winds 5.2 mph 8.4 kmh Calm Calm 2.0 mph SE3.2 kmh SE
Wind Gusts 9.8 mph15.8 kmh -- 4.0 mph6.4 kmh
Humidity 96% 44% 76%
Pressure 30.15 in1021.0 mb 29.92 in1013.2 mb -
Precipitation 0.03 in0.8 mm - -
Hour Temp Dew Point Humidity Winds Wind Gusts Pressure Precip Precip Rate Daily Precip Total
12:00 AM 34.0°F1.1°C 29.9°F-1.2°C 85% 1.6 mph ENE2.6 kmh ENE 3.8 mph6.1 kmh 29.92 in1013.2 mb 0.00 in0.0 mm 0.00 in0.0 mm 0.00 in0.0 mm
12:15 AM 33.3°F0.7°C 28.7°F-1.8°C 83% 2.7 mph WSW4.3 kmh WSW 4.3 mph6.9 kmh 29.92 in1013.2 mb 0.00 in0.0 mm 0.00 in0.0 mm 0.00 in0.0 mm
12:30 AM 32.7°F0.4°C 28.4°F-2.0°C 84% 2.9 mph SW4.7 kmh SW 4.3 mph6.9 kmh 29.92 in1013.2 mb 0.00 in0.0 mm 0.00 in0.0 mm 0.00 in0.0 mm
12:45 AM 32.2°F0.1°C 27.6°F-2.4°C 83% 0.4 mph SSW0.6 kmh SSW 2.0 mph3.2 kmh 29.95 in1014.2 mb 0.00 in0.0 mm 0.00 in0.0 mm 0.00 in0.0 mm
01:00 AM 31.6°F-0.2°C 27.4°F-2.6°C 84% 0.3 mph SSW0.5 kmh SSW 1.3 mph2.1 kmh 29.95 in1014.2 mb 0.00 in0.0 mm 0.00 in0.0 mm 0.00 in0.0 mm
01:15 AM 30.6°F-0.8°C 26.6°F-3.0°C 85% Calm Calm -- 29.95 in1014.2 mb 0.00 in0.0 mm 0.00 in0.0 mm 0.00 in0.0 mm
01:30 AM 29.8°F-1.2°C 25.6°F-3.6°C 84% Calm Calm -- 29.95 in1014.2 mb 0.00 in0.0 mm 0.00 in0.0 mm 0.00 in0.0 mm
02:00 AM 29.5°F-1.4°C 26.1°F-3.3°C 87% Calm Calm -- 29.98 in1015.2 mb 0.00 in0.0 mm 0.00 in0.0 mm 0.00 in0.0 mm
02:15 AM 29.3°F-1.5°C 26.2°F-3.2°C 88% Calm Calm -- 29.98 in1015.2 mb 0.00 in0.0 mm 0.00 in0.0 mm 0.00 in0.0 mm
02:30 AM 28.8°F-1.8°C 25.7°F-3.5°C 88% Calm Calm -- 29.98 in1015.2 mb 0.00 in0.0 mm 0.00 in0.0 mm 0.00 in0.0 mm
02:45 AM 28.8°F-1.8°C 25.9°F-3.4°C 89% Calm Calm -- 30.01 in1016.3 mb 0.00 in0.0 mm 0.00 in0.0 mm 0.00 in0.0 mm
03:00 AM 28.2°F-2.1°C 25.4°F-3.7°C 89% Calm Calm -- 30.01 in1016.3 mb 0.00 in0.0 mm 0.00 in0.0 mm 0.00 in0.0 mm
03:15 AM 27.9°F-2.3°C 24.8°F-4.0°C 88% Calm Calm -- 30.01 in1016.3 mb 0.00 in0.0 mm 0.00 in0.0 mm 0.00 in0.0 mm
03:30 AM 27.3°F-2.6°C 24.2°F-4.3°C 88% Calm Calm -- 29.98 in1015.2 mb 0.00 in0.0 mm 0.00 in0.0 mm 0.00 in0.0 mm
03:45 AM 27.5°F-2.5°C 25.0°F-3.9°C 90% Calm Calm -- 30.01 in1016.3 mb 0.00 in0.0 mm 0.00 in0.0 mm 0.00 in0.0 mm
04:00 AM 27.1°F-2.7°C 24.6°F-4.1°C 90% Calm Calm -- 29.98 in1015.2 mb 0.00 in0.0 mm 0.00 in0.0 mm 0.00 in0.0 mm
04:15 AM 26.8°F-2.9°C 24.2°F-4.3°C 90% Calm Calm -- 30.01 in1016.3 mb 0.00 in0.0 mm 0.00 in0.0 mm 0.00 in0.0 mm
04:30 AM 26.8°F-2.9°C 24.2°F-4.3°C 90% Calm Calm -- 30.01 in1016.3 mb 0.00 in0.0 mm 0.00 in0.0 mm 0.00 in0.0 mm
04:45 AM 26.4°F-3.1°C 24.1°F-4.4°C 91% Calm Calm -- 30.01 in1016.3 mb 0.00 in0.0 mm 0.00 in0.0 mm 0.00 in0.0 mm
05:00 AM 26.2°F-3.2°C 23.7°F-4.6°C 90% Calm Calm -- 30.04 in1017.3 mb 0.00 in0.0 mm 0.00 in0.0 mm 0.00 in0.0 mm
05:15 AM 25.9°F-3.4°C 23.4°F-4.8°C 90% Calm Calm -- 30.04 in1017.3 mb 0.00 in0.0 mm 0.00 in0.0 mm 0.00 in0.0 mm
05:30 AM 25.7°F-3.5°C 23.2°F-4.9°C 90% Calm Calm -- 30.04 in1017.3 mb 0.00 in0.0 mm 0.00 in0.0 mm 0.00 in0.0 mm
05:45 AM 25.7°F-3.5°C 23.4°F-4.8°C 91% Calm Calm -- 30.07 in1018.3 mb 0.00 in0.0 mm 0.00 in0.0 mm 0.00 in0.0 mm
06:00 AM 25.7°F-3.5°C 23.4°F-4.8°C 91% Calm Calm -- 30.07 in1018.3 mb 0.00 in0.0 mm 0.00 in0.0 mm 0.00 in0.0 mm
06:15 AM 25.5°F-3.6°C 23.3°F-4.8°C 91% Calm Calm -- 30.07 in1018.3 mb 0.00 in0.0 mm 0.00 in0.0 mm 0.00 in0.0 mm
06:30 AM 25.3°F-3.7°C 23.1°F-4.9°C 91% Calm Calm -- 30.09 in1019.0 mb 0.00 in0.0 mm 0.00 in0.0 mm 0.00 in0.0 mm
06:45 AM 25.3°F-3.7°C 23.1°F-4.9°C 91% Calm Calm -- 30.07 in1018.3 mb 0.00 in0.0 mm 0.00 in0.0 mm 0.00 in0.0 mm
07:00 AM 25.2°F-3.8°C 22.9°F-5.1°C 91% Calm Calm -- 30.07 in1018.3 mb 0.00 in0.0 mm 0.00 in0.0 mm 0.00 in0.0 mm
07:15 AM 25.2°F-3.8°C 22.9°F-5.1°C 91% Calm Calm -- 30.04 in1017.3 mb 0.00 in0.0 mm 0.00 in0.0 mm 0.00 in0.0 mm
07:30 AM 25.0°F-3.9°C 22.7°F-5.2°C 91% 0.1 mph SSW0.2 kmh SSW 1.3 mph2.1 kmh 30.07 in1018.3 mb 0.00 in0.0 mm 0.00 in0.0 mm 0.00 in0.0 mm
07:45 AM 25.2°F-3.8°C 22.9°F-5.1°C 91% Calm Calm -- 30.07 in1018.3 mb 0.00 in0.0 mm 0.00 in0.0 mm 0.00 in0.0 mm
08:00 AM 25.0°F-3.9°C 22.7°F-5.2°C 91% Calm Calm -- 30.07 in1018.3 mb 0.00 in0.0 mm 0.00 in0.0 mm 0.00 in0.0 mm
08:15 AM 24.8°F-4.0°C 22.5°F-5.3°C 91% Calm Calm -- 30.07 in1018.3 mb 0.00 in0.0 mm 0.00 in0.0 mm 0.00 in0.0 mm
08:30 AM 25.2°F-3.8°C 22.9°F-5.1°C 91% 0.7 mph SSW1.1 kmh SSW 2.2 mph3.5 kmh 30.07 in1018.3 mb 0.00 in0.0 mm 0.00 in0.0 mm 0.00 in0.0 mm
08:45 AM 25.2°F-3.8°C 22.9°F-5.1°C 91% 0.6 mph SSE1.0 kmh SSE 3.1 mph5.0 kmh 30.09 in1019.0 mb 0.00 in0.0 mm 0.00 in0.0 mm 0.00 in0.0 mm
09:00 AM 25.9°F-3.4°C 23.9°F-4.5°C 92% 2.0 mph S3.2 kmh S 4.0 mph6.4 kmh 30.09 in1019.0 mb 0.00 in0.0 mm 0.00 in0.0 mm 0.00 in0.0 mm
09:15 AM 27.0°F-2.8°C 25.2°F-3.8°C 93% 3.0 mph S4.8 kmh S 4.3 mph6.9 kmh 30.09 in1019.0 mb 0.00 in0.0 mm 0.00 in0.0 mm 0.00 in0.0 mm
09:30 AM 27.9°F-2.3°C 26.4°F-3.1°C 94% 2.5 mph S4.0 kmh S 4.3 mph6.9 kmh 30.09 in1019.0 mb 0.00 in0.0 mm 0.00 in0.0 mm 0.00 in0.0 mm
09:45 AM 28.6°F-1.9°C 27.1°F-2.7°C 94% 2.9 mph S4.7 kmh S 4.9 mph7.9 kmh 30.09 in1019.0 mb 0.00 in0.0 mm 0.00 in0.0 mm 0.00 in0.0 mm
10:00 AM 29.5°F-1.4°C 28.0°F-2.2°C 94% 3.7 mph SSW6.0 kmh SSW 7.8 mph12.6 kmh 30.12 in1020.0 mb 0.00 in0.0 mm 0.00 in0.0 mm 0.00 in0.0 mm
10:15 AM 30.6°F-0.8°C 29.0°F-1.7°C 94% 4.6 mph S7.4 kmh S 7.6 mph12.2 kmh 30.12 in1020.0 mb 0.00 in0.0 mm 0.00 in0.0 mm 0.00 in0.0 mm
10:30 AM 32.0°F0.0°C 30.7°F-0.7°C 95% 4.1 mph SSW6.6 kmh SSW 7.4 mph11.9 kmh 30.12 in1020.0 mb 0.00 in0.0 mm 0.00 in0.0 mm 0.00 in0.0 mm
10:45 AM 33.4°F0.8°C 32.4°F0.2°C 96% 3.5 mph S5.6 kmh S 6.3 mph10.1 kmh 30.12 in1020.0 mb 0.00 in0.0 mm 0.00 in0.0 mm 0.00 in0.0 mm
11:00 AM 34.2°F1.2°C 32.9°F0.5°C 95% 4.0 mph SSW6.4 kmh SSW 6.3 mph10.1 kmh 30.12 in1020.0 mb 0.00 in0.0 mm 0.00 in0.0 mm 0.00 in0.0 mm
11:15 AM 35.2°F1.8°C 31.2°F-0.4°C 85% 4.3 mph SW6.9 kmh SW 6.5 mph10.5 kmh 30.12 in1020.0 mb 0.00 in0.0 mm 0.00 in0.0 mm 0.00 in0.0 mm
11:30 AM 36.1°F2.3°C 30.9°F-0.6°C 81% 3.6 mph SSW5.8 kmh SSW 6.3 mph10.1 kmh 30.09 in1019.0 mb 0.00 in0.0 mm 0.00 in0.0 mm 0.00 in0.0 mm
11:45 AM 37.8°F3.2°C 28.5°F-1.9°C 69% 3.6 mph S5.8 kmh S 6.5 mph10.5 kmh 30.12 in1020.0 mb 0.00 in0.0 mm 0.00 in0.0 mm 0.00 in0.0 mm
12:00 PM 38.8°F3.8°C 28.1°F-2.2°C 65% 3.3 mph S5.3 kmh S 5.8 mph9.3 kmh 30.15 in1021.0 mb 0.00 in0.0 mm 0.00 in0.0 mm 0.00 in0.0 mm
12:15 PM 39.2°F4.0°C 27.7°F-2.4°C 63% 3.4 mph S5.5 kmh S 7.6 mph12.2 kmh 30.12 in1020.0 mb 0.00 in0.0 mm 0.00 in0.0 mm 0.00 in0.0 mm
12:30 PM 38.7°F3.7°C 25.1°F-3.8°C 58% 3.9 mph SSW6.3 kmh SSW 6.7 mph10.8 kmh 30.12 in1020.0 mb 0.00 in0.0 mm 0.00 in0.0 mm 0.00 in0.0 mm
12:45 PM 39.7°F4.3°C 27.8°F-2.3°C 62% 3.6 mph S5.8 kmh S 6.0 mph9.7 kmh 30.12 in1020.0 mb 0.00 in0.0 mm 0.00 in0.0 mm 0.00 in0.0 mm
01:00 PM 39.2°F4.0°C 22.1°F-5.5°C 50% 5.0 mph SSW8.0 kmh SSW 8.1 mph13.0 kmh 30.12 in1020.0 mb 0.00 in0.0 mm 0.00 in0.0 mm 0.00 in0.0 mm
01:15 PM 38.3°F3.5°C 23.5°F-4.7°C 55% 4.5 mph SSW7.2 kmh SSW 7.8 mph12.6 kmh 30.12 in1020.0 mb 0.00 in0.0 mm 0.00 in0.0 mm 0.00 in0.0 mm
01:30 PM 38.1°F3.4°C 23.8°F-4.6°C 56% 5.2 mph SW8.4 kmh SW 7.6 mph12.2 kmh 30.12 in1020.0 mb 0.00 in0.0 mm 0.00 in0.0 mm 0.00 in0.0 mm
01:45 PM 37.9°F3.3°C 21.4°F-5.9°C 51% 5.2 mph SW8.4 kmh SW 7.8 mph12.6 kmh 30.12 in1020.0 mb 0.00 in0.0 mm 0.00 in0.0 mm 0.00 in0.0 mm
02:00 PM 38.1°F3.4°C 22.9°F-5.1°C 54% 4.6 mph SW7.4 kmh SW 9.8 mph15.8 kmh 30.12 in1020.0 mb 0.00 in0.0 mm 0.00 in0.0 mm 0.00 in0.0 mm
02:15 PM 38.1°F3.4°C 20.6°F-6.3°C 49% 4.7 mph SSW7.6 kmh SSW 7.8 mph12.6 kmh 30.12 in1020.0 mb 0.00 in0.0 mm 0.00 in0.0 mm 0.00 in0.0 mm
02:30 PM 38.1°F3.4°C 21.6°F-5.8°C 51% 4.3 mph SSW6.9 kmh SSW 8.1 mph13.0 kmh 30.12 in1020.0 mb 0.03 in0.8 mm 0.12 in3.0 mm 0.03 in0.8 mm
02:45 PM 37.9°F3.3°C 19.5°F-6.9°C 47% 4.2 mph SSW6.8 kmh SSW 8.7 mph14.0 kmh 30.12 in1020.0 mb 0.03 in0.8 mm 0.00 in0.0 mm 0.03 in0.8 mm
03:00 PM 37.6°F3.1°C 17.6°F-8.0°C 44% 3.8 mph SSW6.1 kmh SSW 8.1 mph13.0 kmh 30.09 in1019.0 mb 0.03 in0.8 mm 0.00 in0.0 mm 0.03 in0.8 mm
03:15 PM 37.4°F3.0°C 20.4°F-6.4°C 50% 3.2 mph SSW5.1 kmh SSW 5.6 mph9.0 kmh 30.12 in1020.0 mb 0.03 in0.8 mm 0.00 in0.0 mm 0.03 in0.8 mm
03:30 PM 36.9°F2.7°C 19.9°F-6.7°C 50% 3.9 mph S6.3 kmh S 6.5 mph10.5 kmh 30.12 in1020.0 mb 0.00 in0.0 mm 0.00 in0.0 mm 0.03 in0.8 mm
03:45 PM 36.5°F2.5°C 20.1°F-6.6°C 51% 2.4 mph S3.9 kmh S 4.3 mph6.9 kmh 30.09 in1019.0 mb 0.00 in0.0 mm 0.00 in0.0 mm 0.03 in0.8 mm
04:00 PM 36.0°F2.2°C 20.5°F-6.4°C 53% 2.2 mph S3.5 kmh S 4.7 mph7.6 kmh 30.12 in1020.0 mb 0.00 in0.0 mm 0.00 in0.0 mm 0.03 in0.8 mm
04:15 PM 35.6°F2.0°C 20.6°F-6.3°C 54% 1.5 mph SSE2.4 kmh SSE 3.1 mph5.0 kmh 30.12 in1020.0 mb 0.00 in0.0 mm 0.00 in0.0 mm 0.03 in0.8 mm
04:30 PM 34.9°F1.6°C 20.8°F-6.2°C 56% 1.6 mph SSE2.6 kmh SSE 3.1 mph5.0 kmh 30.09 in1019.0 mb 0.00 in0.0 mm 0.00 in0.0 mm 0.03 in0.8 mm
04:45 PM 34.2°F1.2°C 20.5°F-6.4°C 57% 1.5 mph SSE2.4 kmh SSE 3.1 mph5.0 kmh 30.09 in1019.0 mb 0.00 in0.0 mm 0.00 in0.0 mm 0.03 in0.8 mm
05:00 PM 33.4°F0.8°C 20.2°F-6.6°C 58% 1.5 mph SSE2.4 kmh SSE 3.4 mph5.5 kmh 30.09 in1019.0 mb 0.00 in0.0 mm 0.00 in0.0 mm 0.03 in0.8 mm
05:15 PM 33.1°F0.6°C 21.8°F-5.7°C 63% 2.4 mph SSE3.9 kmh SSE 4.0 mph6.4 kmh 30.09 in1019.0 mb 0.00 in0.0 mm 0.00 in0.0 mm 0.03 in0.8 mm
05:30 PM 32.4°F0.2°C 21.2°F-6.0°C 63% 1.8 mph SSE2.9 kmh SSE 4.7 mph7.6 kmh 30.09 in1019.0 mb 0.00 in0.0 mm 0.00 in0.0 mm 0.03 in0.8 mm
05:45 PM 31.8°F-0.1°C 21.4°F-5.9°C 65% 1.9 mph SSE3.1 kmh SSE 3.1 mph5.0 kmh 30.09 in1019.0 mb 0.00 in0.0 mm 0.00 in0.0 mm 0.03 in0.8 mm
06:00 PM 31.8°F-0.1°C 23.5°F-4.7°C 71% 1.9 mph SSE3.1 kmh SSE 4.0 mph6.4 kmh 30.09 in1019.0 mb 0.00 in0.0 mm 0.00 in0.0 mm 0.03 in0.8 mm
06:15 PM 32.0°F0.0°C 24.6°F-4.1°C 74% 2.9 mph SSE4.7 kmh SSE 5.8 mph9.3 kmh 30.09 in1019.0 mb 0.00 in0.0 mm 0.00 in0.0 mm 0.03 in0.8 mm
06:30 PM 32.2°F0.1°C 24.5°F-4.2°C 73% 3.0 mph SE4.8 kmh SE 5.6 mph9.0 kmh 30.09 in1019.0 mb 0.00 in0.0 mm 0.00 in0.0 mm 0.03 in0.8 mm
06:45 PM 32.0°F0.0°C 24.0°F-4.4°C 72% 3.8 mph S6.1 kmh S 7.4 mph11.9 kmh 30.09 in1019.0 mb 0.00 in0.0 mm 0.00 in0.0 mm 0.03 in0.8 mm
07:00 PM 32.0°F0.0°C 22.6°F-5.2°C 68% 4.1 mph S6.6 kmh S 7.2 mph11.6 kmh 30.09 in1019.0 mb 0.00 in0.0 mm 0.00 in0.0 mm 0.03 in0.8 mm
07:15 PM 31.8°F-0.1°C 21.0°F-6.1°C 64% 3.8 mph SSE6.1 kmh SSE 6.9 mph11.1 kmh 30.09 in1019.0 mb 0.00 in0.0 mm 0.00 in0.0 mm 0.03 in0.8 mm
07:30 PM 31.5°F-0.3°C 21.4°F-5.9°C 66% 3.2 mph SSE5.1 kmh SSE 5.8 mph9.3 kmh 30.09 in1019.0 mb 0.00 in0.0 mm 0.00 in0.0 mm 0.03 in0.8 mm
07:45 PM 31.1°F-0.5°C 21.4°F-5.9°C 67% 3.3 mph SSE5.3 kmh SSE 6.0 mph9.7 kmh 30.09 in1019.0 mb 0.00 in0.0 mm 0.00 in0.0 mm 0.03 in0.8 mm
08:00 PM 30.7°F-0.7°C 21.1°F-6.1°C 67% 2.6 mph SSE4.2 kmh SSE 6.3 mph10.1 kmh 30.09 in1019.0 mb 0.00 in0.0 mm 0.00 in0.0 mm 0.03 in0.8 mm
08:15 PM 30.6°F-0.8°C 21.2°F-6.0°C 68% 2.8 mph SSE4.5 kmh SSE 4.3 mph6.9 kmh 30.09 in1019.0 mb 0.00 in0.0 mm 0.00 in0.0 mm 0.03 in0.8 mm
08:30 PM 30.4°F-0.9°C 21.4°F-5.9°C 69% 3.2 mph SSE5.1 kmh SSE 6.0 mph9.7 kmh 30.09 in1019.0 mb 0.00 in0.0 mm 0.00 in0.0 mm 0.03 in0.8 mm
08:45 PM 30.2°F-1.0°C 21.2°F-6.0°C 69% 2.9 mph SSE4.7 kmh SSE 5.8 mph9.3 kmh 30.09 in1019.0 mb 0.00 in0.0 mm 0.00 in0.0 mm 0.03 in0.8 mm
09:00 PM 30.0°F-1.1°C 21.1°F-6.1°C 69% 2.2 mph SSE3.5 kmh SSE 3.6 mph5.8 kmh 30.09 in1019.0 mb 0.00 in0.0 mm 0.00 in0.0 mm 0.03 in0.8 mm
09:15 PM 30.0°F-1.1°C 21.1°F-6.1°C 69% 3.1 mph SE5.0 kmh SE 5.8 mph9.3 kmh 30.09 in1019.0 mb 0.00 in0.0 mm 0.00 in0.0 mm 0.03 in0.8 mm
09:30 PM 29.8°F-1.2°C 20.9°F-6.2°C 69% 3.2 mph SE5.1 kmh SE 5.4 mph8.7 kmh 30.09 in1019.0 mb 0.00 in0.0 mm 0.00 in0.0 mm 0.03 in0.8 mm
09:45 PM 29.7°F-1.3°C 20.7°F-6.3°C 69% 3.2 mph SE5.1 kmh SE 5.4 mph8.7 kmh 30.09 in1019.0 mb 0.00 in0.0 mm 0.00 in0.0 mm 0.03 in0.8 mm
10:00 PM 29.7°F-1.3°C 21.1°F-6.1°C 70% 3.4 mph SSE5.5 kmh SSE 5.6 mph9.0 kmh 30.09 in1019.0 mb 0.00 in0.0 mm 0.00 in0.0 mm 0.03 in0.8 mm
10:15 PM 29.7°F-1.3°C 22.4°F-5.3°C 74% 3.9 mph SSE6.3 kmh SSE 6.5 mph10.5 kmh 30.09 in1019.0 mb 0.00 in0.0 mm 0.00 in0.0 mm 0.03 in0.8 mm
10:30 PM 29.5°F-1.4°C 22.5°F-5.3°C 75% 3.6 mph SSE5.8 kmh SSE 6.3 mph10.1 kmh 30.09 in1019.0 mb 0.00 in0.0 mm 0.00 in0.0 mm 0.03 in0.8 mm
10:45 PM 29.3°F-1.5°C 22.7°F-5.2°C 76% 3.6 mph SSE5.8 kmh SSE 6.3 mph10.1 kmh 30.09 in1019.0 mb 0.00 in0.0 mm 0.00 in0.0 mm 0.03 in0.8 mm
11:00 PM 29.5°F-1.4°C 23.2°F-4.9°C 77% 3.8 mph SE6.1 kmh SE 6.5 mph10.5 kmh 30.09 in1019.0 mb 0.00 in0.0 mm 0.00 in0.0 mm 0.03 in0.8 mm
11:15 PM 29.3°F-1.5°C 23.0°F-5.0°C 77% 3.2 mph SSE5.1 kmh SSE 5.4 mph8.7 kmh 30.09 in1019.0 mb 0.00 in0.0 mm 0.00 in0.0 mm 0.03 in0.8 mm
11:30 PM 29.3°F-1.5°C 23.3°F-4.8°C 78% 3.4 mph SSE5.5 kmh SSE 5.6 mph9.0 kmh 30.09 in1019.0 mb 0.00 in0.0 mm 0.00 in0.0 mm 0.03 in0.8 mm
11:45 PM 29.1°F-1.6°C 23.1°F-4.9°C 78% 2.8 mph SSE4.5 kmh SSE 5.6 mph9.0 kmh 30.09 in1019.0 mb 0.00 in0.0 mm 0.00 in0.0 mm 0.03 in0.8 mm